Delavan, WI (53115)

10:09 AM CDT del 18 Aprile 2015 (GMT -0500)
4th st | | Change Station
CLOSE
Current Station
Stazione meteo personale
Location: Delavan, WI
Altitudine: 938 ft
Stazioni meteo nelle vicinanze

Alt. 938 ft 42.63 °N, 88.64 °W | Updated 17 minutes ago

Sereno
Sereno
62.1 °F
Sembra 62.1 °F
N
1.7
Vento Variabile Vento da Nord

Oggi
Massima -- | Minima -- °F
--% Possibilità di precip.
Ieri
Massima -- | Minima -- °F
Precip. -- in
6:08 AM 7:39 PM
Luna calante, 0% visible
Pressione 30.12 in
Visibilità 10.0 miglia
Nuvole Sereno
Punto di rugiada 36 °F
Umidità 38%
Piovosità -999.00 in
Spessore del manto nevoso Non disponibile.
Raggi UV 5 fuori da 12
Polline 11.40 fuori da 12
Qualità dell'aria Non disponibile.
Flu Activity Local Activity
METAR KBUU 181455Z AUTO 06014G19KT 10SM CLR 13/00 A3012 RMK AO2 T01271001

More Conditions Fewer Conditions

Pressione 30.12 in
Visibilità 10.0 miglia
Nuvole Sereno
Punto di rugiada 36 °F
Umidità 38%
Piovosità -999.00 in
Spessore del manto nevoso Non disponibile.
Raggi UV 5 fuori da 12
Polline 11.40 fuori da 12
Qualità dell'aria Non disponibile.
Flu Activity Local Activity
METAR KBUU 181455Z AUTO 06014G19KT 10SM CLR 13/00 A3012 RMK AO2 T01271001

More Conditions Fewer Conditions

10-Day Weather Forecast

Almanac

Astronomia

Apr. 18, 2015 Alba Tramonto
Ora attuale
Crepuscolo civile
Crepuscolo nautico
Crepuscolo astronomico
Luna
Estensione della luce visibile
Lunghezza del giorno
Tomorrow will be .
, % of the Moon is Illuminated

Gli estremi di oggi

State Highs State Lows

Community

WunderPhotos

Upload Photos

1,814,424 foto caricate!

WunderBlogs® & News

Nearby

Qualità dell'aria

  Qualità dell'aria Indice AQ Inquinante
Not available.

Profondità neve

Stazione Profondità Altitudine

Attività sismica

Città  Distanza Mag. Data & Ora
Minimo Magnitudo Mostrato è 2.5.

Temperature delle acque costiere

Località Temperatura

Stations

Stazioni meteo nelle vicinanze

Ubicazione della stazione Temp. Raffreddamento del vento Punto di rugiada Umidità Vento Precip. Alt. Aggiornato Tipo